Time;durP1;ratioP1;P1;durP2;ratioP2;P2;SDS_P1;SDS_P2;PMS_P1;PMS_P2;Temp;Humidity;BMP_temperature;BMP_pressure;BME280_temperature;BME280_humidity;BME280_pressure;Samples;Min_cycle;Max_cycle;Signal;HPM_P1;HPM_P2
2022/05/27 00:02:16;;;;;;;14.63;2.95;;;11.40;99.90;;;;;;5084780;28;20040;-93
2022/05/27 00:04:42;;;;;;;12.93;3.45;;;11.40;99.90;;;;;;5082806;28;20110;-93
2022/05/27 00:07:08;;;;;;;16.48;2.50;;;11.30;99.90;;;;;;5084189;28;20384;-93
2022/05/27 00:09:34;;;;;;;10.20;2.67;;;11.30;99.90;;;;;;5080513;28;20111;-92
2022/05/27 00:12:00;;;;;;;14.93;2.80;;;11.30;99.90;;;;;;5080146;28;20048;-91
2022/05/27 00:14:26;;;;;;;10.27;2.45;;;11.30;99.90;;;;;;5079138;28;20028;-92
2022/05/27 00:16:52;;;;;;;18.10;2.88;;;11.30;99.90;;;;;;5079851;28;20028;-92
2022/05/27 00:19:17;;;;;;;17.45;2.97;;;11.30;99.90;;;;;;5079844;28;20131;-91
2022/05/27 00:21:43;;;;;;;14.77;2.63;;;11.30;99.90;;;;;;5079926;28;20068;-92
2022/05/27 00:24:09;;;;;;;15.07;2.75;;;11.30;99.90;;;;;;5079217;28;20016;-91
2022/05/27 00:26:35;;;;;;;24.25;2.72;;;11.30;99.90;;;;;;5079382;28;20441;-92
2022/05/27 00:29:00;;;;;;;14.73;2.45;;;11.30;99.90;;;;;;5079669;28;20468;-91
2022/05/27 00:31:26;;;;;;;15.45;3.05;;;11.20;99.90;;;;;;5082731;28;20034;-91
2022/05/27 00:33:52;;;;;;;16.23;2.78;;;11.20;99.90;;;;;;5079283;28;20043;-91
2022/05/27 00:36:18;;;;;;;17.10;3.63;;;11.20;99.90;;;;;;5079080;28;20077;-92
2022/05/27 00:38:44;;;;;;;19.58;2.65;;;11.20;99.90;;;;;;5078812;28;20100;-91
2022/05/27 00:41:11;;;;;;;14.05;3.20;;;11.20;99.90;;;;;;5078685;28;20031;-92
2022/05/27 00:43:39;;;;;;;13.38;2.65;;;11.20;99.90;;;;;;5078864;28;20029;-92
2022/05/27 00:46:27;;;;;;;12.90;3.00;;;11.20;99.90;;;;;;5079269;28;20035;-93
2022/05/27 00:48:55;;;;;;;19.17;2.78;;;11.10;99.90;;;;;;5079016;28;20085;-91
2022/05/27 00:51:27;;;;;;;17.90;3.45;;;11.10;99.90;;;;;;5078683;28;20397;-91
2022/05/27 00:53:58;;;;;;;19.08;3.30;;;11.10;99.90;;;;;;5078588;28;20183;-91
2022/05/27 00:56:28;;;;;;;19.08;3.03;;;11.10;99.90;;;;;;5078604;28;20028;-93
2022/05/27 00:58:59;;;;;;;15.77;2.60;;;11.10;99.90;;;;;;5070563;28;20354;-92
2022/05/27 01:01:26;;;;;;;22.92;3.03;;;11.10;99.90;;;;;;5075102;28;20357;-92
2022/05/27 01:03:55;;;;;;;17.05;3.25;;;11.00;99.90;;;;;;5074923;28;20025;-93
2022/05/27 01:06:21;;;;;;;15.55;2.63;;;11.00;99.90;;;;;;5075040;28;20477;-92
2022/05/27 01:08:47;;;;;;;21.95;3.30;;;11.00;99.90;;;;;;5074995;28;20119;-92
2022/05/27 01:11:44;;;;;;;20.48;3.30;;;11.00;99.90;;;;;;5075357;28;20424;-92
2022/05/27 01:15:06;;;;;;;14.68;2.83;;;11.00;99.90;;;;;;5075242;28;20059;-92
2022/05/27 01:17:56;;;;;;;15.27;3.05;;;11.00;99.90;;;;;;5046659;28;20032;-92
2022/05/27 01:20:27;;;;;;;17.55;2.80;;;10.90;99.90;;;;;;5078393;28;20063;-92
2022/05/27 01:22:59;;;;;;;22.23;3.40;;;10.90;99.90;;;;;;5076310;28;20029;-93
2022/05/27 01:25:37;;;;;;;15.00;2.67;;;10.80;99.90;;;;;;5074745;28;20027;-91
2022/05/27 01:28:09;;;;;;;17.02;2.80;;;10.80;99.90;;;;;;5074647;28;20024;-92
2022/05/27 01:30:41;;;;;;;18.00;2.70;;;10.80;99.90;;;;;;5074952;28;20068;-91
2022/05/27 01:33:12;;;;;;;12.35;2.88;;;10.80;99.90;;;;;;5074234;28;20055;-92
2022/05/27 01:36:03;;;;;;;19.67;3.45;;;10.80;99.90;;;;;;5075070;28;20036;-92
2022/05/27 01:38:39;;;;;;;21.10;3.70;;;10.80;99.90;;;;;;5075989;28;20381;-91
2022/05/27 01:41:36;;;;;;;21.15;3.33;;;10.80;99.90;;;;;;5075704;28;20028;-91
2022/05/27 01:44:14;;;;;;;22.80;3.33;;;10.70;99.90;;;;;;5069550;28;20503;-91
2022/05/27 01:46:48;;;;;;;17.13;2.78;;;10.70;99.90;;;;;;5075541;28;20017;-92
2022/05/27 01:49:37;;;;;;;13.50;2.60;;;10.70;99.90;;;;;;5074897;28;20052;-92
2022/05/27 01:52:24;;;;;;;14.45;2.67;;;10.70;99.90;;;;;;5074848;28;20059;-91
2022/05/27 01:55:01;;;;;;;18.00;3.35;;;10.70;99.90;;;;;;5075171;28;20037;-91
2022/05/27 01:57:46;;;;;;;19.52;4.05;;;10.60;99.90;;;;;;5075109;28;20024;-91
2022/05/27 02:00:20;;;;;;;27.58;3.38;;;10.60;99.90;;;;;;5074537;28;20490;-91
2022/05/27 02:03:02;;;;;;;13.00;2.60;;;10.60;99.90;;;;;;5076405;28;20120;-91
2022/05/27 02:05:36;;;;;;;14.60;2.60;;;10.60;99.90;;;;;;5076074;28;20025;-92
2022/05/27 02:08:09;;;;;;;16.10;3.95;;;10.60;99.90;;;;;;5074676;28;20033;-91
2022/05/27 02:10:47;;;;;;;21.05;4.43;;;10.50;99.90;;;;;;5074797;28;20104;-92
2022/05/27 02:13:21;;;;;;;22.55;3.60;;;10.50;99.90;;;;;;5074594;28;20040;-92
2022/05/27 02:15:50;;;;;;;22.25;3.92;;;10.40;99.90;;;;;;5074544;28;20097;-93
2022/05/27 02:18:25;;;;;;;15.90;3.22;;;10.40;99.90;;;;;;5074679;28;20033;-92
2022/05/27 02:20:57;;;;;;;13.00;3.05;;;10.30;99.90;;;;;;5074524;28;20021;-92
2022/05/27 02:23:39;;;;;;;20.55;3.00;;;10.30;99.90;;;;;;5074303;28;20032;-91
2022/05/27 02:26:11;;;;;;;16.42;2.80;;;10.20;99.90;;;;;;5073955;28;20070;-91
2022/05/27 02:28:43;;;;;;;21.95;4.15;;;10.20;99.90;;;;;;5072458;28;20033;-92
2022/05/27 02:31:21;;;;;;;18.38;3.00;;;10.20;99.90;;;;;;5072367;28;20074;-92
2022/05/27 02:36:46;;;;;;;15.95;3.33;;;10.10;99.90;;;;;;5074921;28;20031;-93
2022/05/27 02:39:12;;;;;;;22.52;3.30;;;10.10;99.90;;;;;;5072835;28;20028;-92
2022/05/27 02:41:51;;;;;;;25.40;4.65;;;10.00;99.90;;;;;;5072259;28;20489;-91
2022/05/27 02:44:22;;;;;;;21.77;3.90;;;10.00;99.90;;;;;;5072140;28;20031;-91
2022/05/27 02:47:24;;;;;;;17.75;2.95;;;10.00;99.90;;;;;;5078483;28;20070;-92
2022/05/27 02:50:09;;;;;;;;;;;10.00;99.90;;;;;;5081688;28;20025;-92
2022/05/27 02:52:44;;;;;;;16.60;2.40;;;10.00;99.90;;;;;;5077126;28;19920;-91
2022/05/27 02:55:33;;;;;;;18.77;2.92;;;9.90;99.90;;;;;;5074718;28;20115;-91
2022/05/27 02:58:02;;;;;;;16.67;2.35;;;10.00;99.90;;;;;;5072384;28;20488;-92
2022/05/27 03:00:31;;;;;;;17.00;2.95;;;9.90;99.90;;;;;;5075448;28;20024;-92
2022/05/27 03:03:00;;;;;;;13.05;3.05;;;9.90;99.90;;;;;;5075384;28;20028;-91
2022/05/27 03:05:53;;;;;;;26.13;3.70;;;9.90;99.90;;;;;;5075339;28;20078;-91
2022/05/27 03:08:32;;;;;;;15.55;2.65;;;9.80;99.90;;;;;;5075980;28;20487;-92
2022/05/27 03:11:09;;;;;;;17.95;2.70;;;9.80;99.90;;;;;;5076605;28;20028;-91
2022/05/27 03:13:56;;;;;;;18.48;3.55;;;9.70;99.90;;;;;;5075724;28;20484;-91
2022/05/27 03:16:31;;;;;;;14.90;2.92;;;9.70;99.90;;;;;;5074672;28;20465;-91
2022/05/27 03:19:03;;;;;;;19.95;3.00;;;9.60;99.90;;;;;;5074718;28;20370;-93
2022/05/27 03:22:01;;;;;;;19.40;2.72;;;9.60;99.90;;;;;;5074942;28;20047;-92
2022/05/27 03:24:54;;;;;;;18.23;2.58;;;9.50;99.90;;;;;;5066884;28;20044;-91
2022/05/27 03:27:26;;;;;;;14.40;2.60;;;9.50;99.90;;;;;;5074671;28;20024;-93
2022/05/27 03:30:02;;;;;;;10.55;2.25;;;9.40;99.90;;;;;;5074502;28;20039;-91
2022/05/27 03:32:48;;;;;;;13.93;2.45;;;9.30;99.90;;;;;;5074998;28;20114;-91
2022/05/27 03:35:35;;;;;;;14.38;4.25;;;9.30;99.90;;;;;;5076305;28;20089;-91
2022/05/27 03:38:05;;;;;;;13.80;2.88;;;9.20;99.90;;;;;;5077025;28;20024;-91
2022/05/27 03:40:39;;;;;;;13.23;2.50;;;9.20;99.90;;;;;;5077687;28;20036;-91
2022/05/27 03:43:06;;;;;;;19.17;3.13;;;9.10;99.90;;;;;;5078093;28;20032;-92
2022/05/27 03:46:09;;;;;;;13.45;2.70;;;9.10;99.90;;;;;;5078279;28;20028;-91
2022/05/27 03:48:37;;;;;;;15.55;2.60;;;9.10;99.90;;;;;;5070119;28;20036;-90
2022/05/27 03:51:21;;;;;;;19.73;2.70;;;9.10;99.90;;;;;;5077863;28;20127;-91
2022/05/27 03:54:05;;;;;;;12.20;2.42;;;9.10;99.90;;;;;;5077943;28;20039;-91
2022/05/27 03:56:32;;;;;;;14.40;3.08;;;9.00;99.90;;;;;;5081073;28;20028;-92
2022/05/27 03:58:59;;;;;;;15.23;3.65;;;9.00;99.90;;;;;;5079165;28;20493;-91
2022/05/27 04:01:29;;;;;;;14.43;3.35;;;9.00;99.90;;;;;;5078644;28;20028;-90
2022/05/27 04:03:56;;;;;;;16.70;2.50;;;8.90;99.90;;;;;;5079099;28;20175;-90
2022/05/27 04:06:22;;;;;;;9.50;2.33;;;8.90;99.90;;;;;;5077789;28;20040;-90
2022/05/27 04:08:48;;;;;;;17.42;3.70;;;8.90;99.90;;;;;;5078057;28;20024;-91
2022/05/27 04:11:14;;;;;;;12.88;2.50;;;8.90;99.90;;;;;;5077763;28;20039;-92
2022/05/27 04:13:39;;;;;;;11.55;2.22;;;8.90;99.90;;;;;;5077655;28;20554;-92
2022/05/27 04:16:05;;;;;;;14.63;3.08;;;8.90;99.90;;;;;;5077730;28;20125;-91
2022/05/27 04:18:31;;;;;;;16.60;3.70;;;8.90;99.90;;;;;;5077711;28;20046;-92
2022/05/27 04:20:57;;;;;;;15.63;3.05;;;8.90;99.90;;;;;;5060793;28;20485;-91
2022/05/27 04:23:22;;;;;;;19.75;2.80;;;8.90;99.90;;;;;;5077642;28;20128;-92
2022/05/27 04:25:49;;;;;;;21.92;4.53;;;8.90;99.90;;;;;;5077427;28;20024;-91
2022/05/27 04:28:16;;;;;;;16.17;2.45;;;8.90;99.90;;;;;;5077238;28;20434;-92
2022/05/27 04:30:43;;;;;;;11.35;2.22;;;8.90;99.90;;;;;;5077562;28;20024;-92
2022/05/27 04:33:15;;;;;;;21.25;2.72;;;8.90;99.90;;;;;;5077272;28;20141;-91
2022/05/27 04:35:41;;;;;;;17.65;2.45;;;8.90;99.90;;;;;;5078711;28;20024;-91
2022/05/27 04:38:07;;;;;;;17.88;2.67;;;8.90;99.90;;;;;;5078522;28;20037;-91
2022/05/27 04:40:33;;;;;;;14.15;2.85;;;8.90;99.90;;;;;;5078301;28;20174;-91
2022/05/27 04:43:02;;;;;;;19.52;3.05;;;9.00;99.90;;;;;;5085292;28;20092;-91
2022/05/27 04:45:28;;;;;;;19.42;4.10;;;9.00;99.90;;;;;;5086076;28;20031;-91
2022/05/27 04:47:54;;;;;;;12.32;2.20;;;9.00;99.90;;;;;;5085473;28;20039;-91
2022/05/27 04:50:20;;;;;;;19.70;3.45;;;9.00;99.90;;;;;;5080370;28;20028;-91
2022/05/27 04:52:46;;;;;;;16.17;3.60;;;9.10;99.90;;;;;;5077722;28;20082;-91
2022/05/27 04:55:15;;;;;;;16.73;2.35;;;9.10;99.90;;;;;;5077128;28;20024;-91
2022/05/27 04:57:49;;;;;;;20.45;2.67;;;9.10;99.90;;;;;;5078869;28;20024;-91
2022/05/27 05:00:19;;;;;;;18.48;2.92;;;9.10;99.90;;;;;;5078678;28;20047;-91
2022/05/27 05:02:45;;;;;;;13.77;2.50;;;9.10;99.90;;;;;;5077490;28;20035;-91
2022/05/27 05:05:13;;;;;;;14.63;2.30;;;9.10;99.90;;;;;;5077774;28;20035;-92
2022/05/27 05:07:40;;;;;;;20.08;2.58;;;9.10;99.90;;;;;;5077706;28;20028;-92
2022/05/27 05:10:08;;;;;;;18.08;4.47;;;9.10;99.90;;;;;;5078879;28;20030;-92
2022/05/27 05:12:34;;;;;;;17.50;2.50;;;9.20;99.90;;;;;;5077741;28;20197;-93
2022/05/27 05:15:00;;;;;;;11.88;2.58;;;9.20;99.90;;;;;;5080615;28;20062;-91
2022/05/27 05:17:26;;;;;;;18.88;2.47;;;9.20;99.90;;;;;;5077885;28;20024;-91
2022/05/27 05:19:55;;;;;;;16.08;2.28;;;9.20;99.90;;;;;;5077271;28;20449;-93
2022/05/27 05:22:22;;;;;;;16.85;3.05;;;9.30;99.90;;;;;;5076756;28;20030;-91
2022/05/27 05:24:48;;;;;;;17.23;2.60;;;9.30;99.90;;;;;;5077327;28;20028;-91
2022/05/27 05:27:14;;;;;;;17.58;3.22;;;9.30;99.90;;;;;;5079158;28;20039;-91
2022/05/27 05:29:40;;;;;;;15.82;2.33;;;9.40;99.90;;;;;;5080904;28;20084;-90
2022/05/27 05:32:07;;;;;;;18.98;3.47;;;9.40;99.90;;;;;;5080493;28;20058;-91
2022/05/27 05:34:32;;;;;;;20.55;2.80;;;9.40;99.90;;;;;;5086532;28;20122;-92
2022/05/27 05:36:58;;;;;;;15.40;3.10;;;9.50;99.90;;;;;;5095996;28;20024;-92
2022/05/27 05:39:25;;;;;;;18.25;2.67;;;9.60;99.90;;;;;;5097045;28;20058;-92
2022/05/27 05:41:59;;;;;;;20.33;3.63;;;9.60;99.90;;;;;;5095544;28;20044;-92
2022/05/27 05:44:30;;;;;;;16.88;2.70;;;9.70;99.90;;;;;;5095483;28;20028;-92
2022/05/27 05:46:56;;;;;;;18.70;3.10;;;9.70;99.90;;;;;;5085926;28;20020;-89
2022/05/27 05:49:22;;;;;;;21.30;3.30;;;9.80;99.90;;;;;;5083498;28;20031;-89
2022/05/27 05:51:48;;;;;;;13.75;2.38;;;9.80;99.90;;;;;;5081551;28;20028;-90
2022/05/27 05:54:14;;;;;;;18.70;2.78;;;9.80;99.90;;;;;;5080826;28;20081;-89
2022/05/27 05:56:40;;;;;;;21.38;2.80;;;9.90;99.90;;;;;;5080756;28;20020;-91
2022/05/27 05:59:06;;;;;;;12.35;2.42;;;9.90;99.90;;;;;;5077470;28;20135;-91
2022/05/27 06:01:31;;;;;;;15.80;2.42;;;9.90;99.90;;;;;;5072562;28;20131;-91
2022/05/27 06:03:57;;;;;;;18.88;2.88;;;10.00;99.90;;;;;;5077091;28;20556;-91
2022/05/27 06:06:26;;;;;;;19.90;2.55;;;10.00;99.90;;;;;;5077576;28;20051;-91
2022/05/27 06:08:51;;;;;;;20.33;2.70;;;10.00;99.90;;;;;;5091196;28;20540;-90
2022/05/27 06:11:17;;;;;;;16.23;2.33;;;10.00;99.90;;;;;;5077098;28;20058;-90
2022/05/27 06:13:43;;;;;;;16.92;2.13;;;10.00;99.90;;;;;;5076799;28;20115;-91
2022/05/27 06:16:10;;;;;;;19.98;2.92;;;10.00;99.90;;;;;;5076894;28;20074;-92
2022/05/27 06:18:36;;;;;;;11.05;2.53;;;10.10;99.90;;;;;;5076730;28;20035;-91
2022/05/27 06:21:02;;;;;;;19.40;2.75;;;10.10;99.90;;;;;;5076953;28;20031;-92
2022/05/27 06:23:29;;;;;;;23.70;3.67;;;10.20;99.90;;;;;;5076697;28;20035;-90
2022/05/27 06:26:00;;;;;;;15.48;3.30;;;10.20;99.90;;;;;;5076645;28;20036;-92
2022/05/27 06:36:41;;;;;;;13.88;2.40;;;10.40;99.90;;;;;;5092486;28;20067;-90
2022/05/27 06:39:07;;;;;;;18.85;3.22;;;10.40;99.90;;;;;;5075904;28;20055;-91
2022/05/27 06:41:34;;;;;;;29.58;3.50;;;10.50;99.90;;;;;;5076459;28;20016;-92
2022/05/27 06:44:00;;;;;;;21.35;2.70;;;10.50;99.90;;;;;;5075722;28;20023;-90
2022/05/27 06:46:25;;;;;;;43.25;4.32;;;10.60;99.90;;;;;;5078900;28;20149;-91
2022/05/27 06:48:51;;;;;;;23.90;4.03;;;10.70;99.90;;;;;;5080099;28;20619;-90
2022/05/27 06:51:20;;;;;;;13.80;2.80;;;10.80;99.90;;;;;;5077034;28;20153;-91
2022/05/27 06:53:46;;;;;;;18.40;3.72;;;10.90;99.90;;;;;;5077623;28;20122;-89
2022/05/27 06:56:12;;;;;;;27.05;3.10;;;11.00;99.90;;;;;;5077119;28;20100;-92
2022/05/27 06:58:40;;;;;;;15.23;2.50;;;11.20;99.90;;;;;;5077296;28;20047;-90
2022/05/27 07:01:07;;;;;;;12.90;2.50;;;11.30;99.90;;;;;;5076703;28;20477;-88
2022/05/27 07:03:32;;;;;;;21.35;3.38;;;11.30;99.90;;;;;;5076812;28;20028;-90
2022/05/27 07:05:59;;;;;;;18.30;3.30;;;11.50;99.90;;;;;;5076853;28;20124;-89
2022/05/27 07:08:25;;;;;;;16.10;3.10;;;11.50;99.90;;;;;;5076953;28;20024;-89
2022/05/27 07:10:51;;;;;;;17.00;2.83;;;11.60;99.90;;;;;;5076650;28;20058;-90
2022/05/27 07:13:18;;;;;;;16.92;3.53;;;11.60;99.90;;;;;;5075057;28;20093;-90
2022/05/27 07:15:44;;;;;;;15.02;2.28;;;11.70;99.90;;;;;;5077342;28;20060;-89
2022/05/27 07:18:13;;;;;;;20.30;2.60;;;11.60;99.90;;;;;;5078080;28;20032;-90
2022/05/27 07:20:40;;;;;;;21.75;2.83;;;11.70;99.90;;;;;;5080876;28;20024;-91
2022/05/27 07:23:07;;;;;;;16.27;2.92;;;11.70;99.90;;;;;;5091006;28;20031;-92
2022/05/27 07:25:37;;;;;;;18.55;3.53;;;11.70;99.90;;;;;;5089942;28;20075;-92
2022/05/27 07:28:07;;;;;;;15.50;3.53;;;11.70;99.90;;;;;;5085465;28;20028;-91
2022/05/27 07:30:34;;;;;;;14.43;3.00;;;11.80;99.90;;;;;;5077495;28;20397;-91
2022/05/27 07:33:00;;;;;;;18.95;2.88;;;11.90;99.90;;;;;;5080788;28;20024;-93
2022/05/27 07:35:26;;;;;;;15.93;3.00;;;11.90;99.90;;;;;;5084057;28;20107;-92
2022/05/27 07:37:53;;;;;;;14.15;2.70;;;12.00;99.90;;;;;;5082018;28;20024;-93
2022/05/27 07:40:21;;;;;;;14.90;2.53;;;12.10;99.90;;;;;;5078671;28;20028;-92
2022/05/27 07:42:48;;;;;;;16.27;2.47;;;12.20;99.90;;;;;;5070855;28;20073;-91
2022/05/27 07:45:16;;;;;;;14.70;3.70;;;12.10;99.90;;;;;;5076598;28;20035;-92
2022/05/27 07:47:41;;;;;;;23.02;3.92;;;12.10;99.90;;;;;;5076617;28;20046;-92
2022/05/27 07:50:11;;;;;;;15.13;2.05;;;12.30;99.30;;;;;;5074882;28;20091;-92
2022/05/27 07:52:38;;;;;;;10.95;1.90;;;12.30;99.30;;;;;;5073872;28;20472;-92
2022/05/27 07:55:06;;;;;;;14.10;2.22;;;12.40;98.90;;;;;;5074328;28;20708;-93
2022/05/27 07:57:32;;;;;;;12.57;2.58;;;12.40;98.30;;;;;;5077686;28;20028;-92
2022/05/27 08:00:07;;;;;;;10.93;1.65;;;12.50;98.00;;;;;;5082937;28;20051;-93
2022/05/27 08:02:33;;;;;;;16.05;2.90;;;12.60;98.10;;;;;;5068147;28;20481;-93
2022/05/27 08:05:02;;;;;;;26.52;2.58;;;12.70;97.70;;;;;;5072165;28;20069;-93
2022/05/27 08:07:33;;;;;;;13.60;2.00;;;12.60;97.50;;;;;;5075498;28;20020;-92
2022/05/27 08:09:58;;;;;;;13.52;2.45;;;12.60;97.30;;;;;;5076184;28;20020;-92
2022/05/27 08:12:24;;;;;;;12.52;1.65;;;12.60;97.30;;;;;;5075656;28;20194;-94
2022/05/27 08:14:50;;;;;;;17.63;3.55;;;12.70;96.80;;;;;;5077560;28;20039;-93
2022/05/27 08:17:16;;;;;;;12.60;2.33;;;12.70;96.40;;;;;;5081270;28;20345;-92
2022/05/27 08:19:42;;;;;;;14.65;3.38;;;12.80;96.40;;;;;;5087653;28;20032;-92
2022/05/27 08:22:11;;;;;;;16.92;2.33;;;12.90;95.90;;;;;;5085534;28;20024;-93
2022/05/27 08:24:38;;;;;;;13.10;2.55;;;13.00;95.90;;;;;;5086531;28;20028;-93
2022/05/27 08:27:05;;;;;;;15.15;2.75;;;13.00;96.10;;;;;;5086979;28;20020;-93
2022/05/27 08:29:31;;;;;;;17.10;2.40;;;13.00;96.00;;;;;;5086186;28;20135;-93
2022/05/27 08:31:56;;;;;;;12.98;2.50;;;12.90;96.10;;;;;;5085678;28;20133;-91
2022/05/27 08:39:51;;;;;;;14.20;3.22;;;12.90;96.60;;;;;;5090703;28;20031;-91
2022/05/27 08:42:33;;;;;;;12.52;3.03;;;13.00;96.80;;;;;;5077595;28;20024;-89
2022/05/27 08:45:32;;;;;;;14.35;2.40;;;13.10;96.90;;;;;;5072921;28;20020;-92
2022/05/27 08:48:05;;;;;;;9.88;2.10;;;13.10;96.50;;;;;;5064664;28;20024;-90
2022/05/27 08:50:51;;;;;;;13.15;3.05;;;13.20;96.20;;;;;;5079388;28;20028;-91
2022/05/27 08:53:48;;;;;;;11.93;2.13;;;13.20;95.90;;;;;;5078827;28;20039;-91
2022/05/27 08:59:38;;;;;;;12.70;3.08;;;13.40;95.00;;;;;;5097288;28;20046;-90
2022/05/27 09:02:28;;;;;;;16.33;3.60;;;13.50;94.50;;;;;;5075541;28;20577;-91
2022/05/27 09:05:03;;;;;;;13.43;2.13;;;13.60;94.00;;;;;;5079211;28;20036;-90
2022/05/27 09:07:35;;;;;;;12.95;2.28;;;13.70;93.80;;;;;;5078777;28;20050;-91
2022/05/27 09:10:06;;;;;;;14.45;2.30;;;13.90;94.20;;;;;;5078850;28;20039;-90
2022/05/27 09:12:58;;;;;;;18.95;3.95;;;14.10;93.30;;;;;;5077913;28;20081;-91
2022/05/27 09:15:41;;;;;;;11.63;2.03;;;14.10;92.70;;;;;;5077676;28;20039;-91
2022/05/27 09:18:33;;;;;;;15.65;2.65;;;14.20;92.50;;;;;;5079049;28;20052;-92
2022/05/27 09:21:25;;;;;;;18.20;2.67;;;14.30;92.60;;;;;;5075939;28;20032;-90
2022/05/27 09:24:14;;;;;;;19.63;2.38;;;14.50;92.00;;;;;;5045896;28;20055;-90
2022/05/27 09:27:07;;;;;;;17.30;2.38;;;14.60;91.70;;;;;;5076392;28;20046;-91
2022/05/27 09:30:23;;;;;;;15.25;2.75;;;14.60;91.00;;;;;;5078105;28;20036;-91
2022/05/27 09:32:59;;;;;;;13.30;2.10;;;14.50;90.80;;;;;;5033944;28;20032;-90
2022/05/27 09:35:45;;;;;;;18.88;2.50;;;14.50;91.10;;;;;;5077867;28;20114;-90
2022/05/27 09:38:22;;;;;;;12.38;2.42;;;14.50;91.20;;;;;;5077707;28;20138;-90
2022/05/27 09:40:57;;;;;;;14.25;1.92;;;14.50;91.30;;;;;;5078095;28;20028;-92
2022/05/27 09:43:41;;;;;;;17.83;2.88;;;14.40;90.80;;;;;;5077642;28;20039;-92
2022/05/27 09:46:18;;;;;;;12.63;1.67;;;14.40;90.60;;;;;;5077526;28;20089;-90
2022/05/27 09:48:47;;;;;;;17.13;2.15;;;14.60;90.60;;;;;;5079329;28;20036;-92
2022/05/27 09:51:15;;;;;;;18.45;2.75;;;14.80;90.60;;;;;;5077861;28;20020;-88
2022/05/27 09:53:49;;;;;;;13.43;2.08;;;15.00;90.20;;;;;;5077707;28;20032;-89
2022/05/27 09:56:31;;;;;;;12.07;2.13;;;15.00;88.60;;;;;;5078633;28;20029;-92
2022/05/27 09:59:20;;;;;;;19.88;2.55;;;14.80;87.80;;;;;;5075961;28;20044;-90
2022/05/27 10:01:45;;;;;;;13.93;2.47;;;14.70;88.00;;;;;;5078094;28;20112;-90
2022/05/27 10:04:16;;;;;;;9.68;2.42;;;14.70;88.20;;;;;;5090582;28;20048;-89
2022/05/27 10:06:43;;;;;;;10.90;2.35;;;14.60;87.50;;;;;;5094260;28;20009;-91
2022/05/27 10:09:30;;;;;;;13.98;3.10;;;14.50;87.40;;;;;;5086366;28;20465;-89
2022/05/27 10:11:57;;;;;;;10.82;2.17;;;14.50;86.70;;;;;;5078818;28;20033;-92
2022/05/27 10:14:29;;;;;;;10.77;2.63;;;14.60;86.80;;;;;;5077779;28;20040;-90
2022/05/27 10:17:25;;;;;;;18.42;2.80;;;14.70;86.30;;;;;;5077226;28;20044;-91
2022/05/27 10:19:51;;;;;;;12.23;2.13;;;14.80;86.40;;;;;;5076603;28;20409;-89
2022/05/27 10:22:30;;;;;;;9.05;1.80;;;15.00;86.20;;;;;;5076142;28;20088;-91
2022/05/27 10:25:08;;;;;;;18.98;2.78;;;15.20;86.10;;;;;;5075478;28;20024;-90
2022/05/27 10:27:36;;;;;;;12.85;2.25;;;15.20;84.90;;;;;;5076162;28;20028;-88
2022/05/27 10:30:25;;;;;;;9.85;2.10;;;15.10;84.10;;;;;;5074760;28;20028;-91
2022/05/27 10:32:52;;;;;;;10.75;1.55;;;15.20;83.30;;;;;;5072040;28;20092;-92
2022/05/27 10:35:20;;;;;;;13.82;3.10;;;15.20;83.40;;;;;;5073839;28;20024;-93
2022/05/27 10:38:15;;;;;;;16.77;3.65;;;15.40;83.30;;;;;;5071382;28;20020;-92
2022/05/27 10:41:07;;;;;;;13.80;2.00;;;15.60;83.40;;;;;;5073710;28;20054;-92
2022/05/27 10:44:03;;;;;;;10.70;1.58;;;15.60;82.20;;;;;;5054333;28;20071;-93
2022/05/27 10:46:38;;;;;;;6.95;1.20;;;15.80;80.80;;;;;;5055005;28;20037;-94
2022/05/27 10:49:12;;;;;;;8.18;1.50;;;15.70;80.00;;;;;;5072200;28;20024;-94
2022/05/27 10:51:57;;;;;;;18.60;3.05;;;15.50;79.20;;;;;;5074403;28;20513;-93
2022/05/27 10:54:40;;;;;;;12.88;2.00;;;15.60;80.60;;;;;;5074815;28;20036;-93
2022/05/27 11:04:02;;;;;;;15.85;2.22;;;16.10;80.80;;;;;;5093118;28;20100;-92
2022/05/27 11:06:56;;;;;;;11.40;1.60;;;16.30;79.10;;;;;;5078732;28;20028;-93
2022/05/27 11:09:40;;;;;;;13.15;2.20;;;16.50;78.40;;;;;;5076145;28;20065;-91
2022/05/27 11:12:15;;;;;;;16.35;2.00;;;16.60;77.50;;;;;;5078409;28;20035;-91
2022/05/27 11:15:12;;;;;;;11.20;2.20;;;16.80;77.70;;;;;;5080041;28;20048;-90
2022/05/27 11:17:50;;;;;;;8.60;2.78;;;16.90;75.90;;;;;;5085544;28;20108;-92
2022/05/27 11:24:10;;;;;;;11.45;1.80;;;16.50;74.00;;;;;;5120440;22;20097;-91
2022/05/27 11:26:43;;;;;;;8.07;1.75;;;16.20;74.40;;;;;;5095322;28;20044;-94
2022/05/27 11:29:11;;;;;;;11.07;2.25;;;16.20;75.90;;;;;;5059250;28;20029;-91
2022/05/27 11:31:40;;;;;;;5.65;1.52;;;16.30;76.10;;;;;;5058396;28;20063;-92
2022/05/27 11:34:11;;;;;;;11.30;1.60;;;16.60;76.10;;;;;;5057481;28;20040;-90
2022/05/27 11:36:40;;;;;;;11.40;2.03;;;16.90;75.40;;;;;;5057584;28;20059;-93
2022/05/27 11:39:26;;;;;;;6.53;1.70;;;17.10;75.00;;;;;;5057190;28;20021;-94
2022/05/27 11:42:14;;;;;;;6.85;1.58;;;17.20;73.70;;;;;;5058318;28;20044;-93
2022/05/27 11:45:16;;;;;;;11.07;1.23;;;17.10;73.70;;;;;;5065834;28;20056;-93
2022/05/27 11:47:51;;;;;;;7.80;1.70;;;16.90;73.60;;;;;;5074542;28;20040;-94
2022/05/27 11:50:38;;;;;;;7.50;1.88;;;16.70;73.40;;;;;;5074396;28;20025;-94
2022/05/27 11:53:26;;;;;;;16.85;2.33;;;16.70;73.50;;;;;;5074352;28;20036;-93
2022/05/27 11:56:05;;;;;;;6.00;1.60;;;16.80;74.70;;;;;;5075310;28;20114;-93
2022/05/27 11:59:02;;;;;;;8.50;1.77;;;16.80;74.50;;;;;;5076162;28;20107;-94
2022/05/27 12:01:56;;;;;;;10.50;1.85;;;16.70;74.20;;;;;;5078858;28;20081;-93
2022/05/27 12:04:46;;;;;;;11.50;1.48;;;16.70;74.50;;;;;;5076304;28;20028;-95
2022/05/27 12:07:41;;;;;;;10.75;2.10;;;16.80;74.70;;;;;;5076896;28;20078;-93
2022/05/27 12:10:40;;;;;;;9.18;1.90;;;16.90;74.40;;;;;;5078846;28;20040;-93
2022/05/27 12:13:16;;;;;;;5.93;2.08;;;17.20;73.70;;;;;;5080947;28;20032;-93
2022/05/27 12:15:53;;;;;;;7.32;1.60;;;17.20;72.90;;;;;;5081800;28;20020;-93
2022/05/27 12:18:31;;;;;;;9.23;1.58;;;17.20;72.30;;;;;;5079687;28;20027;-93
2022/05/27 12:21:03;;;;;;;14.55;2.50;;;17.00;72.50;;;;;;5079807;28;20035;-93
2022/05/27 12:23:30;;;;;;;8.35;1.55;;;16.90;72.40;;;;;;5080367;28;20183;-95
2022/05/27 12:26:00;;;;;;;8.80;1.80;;;16.70;72.30;;;;;;5080569;28;20028;-93
2022/05/27 12:28:36;;;;;;;11.52;2.25;;;16.90;72.90;;;;;;5079566;28;20032;-93
2022/05/27 12:31:04;;;;;;;12.50;1.98;;;17.10;72.80;;;;;;5081619;28;20028;-92
2022/05/27 12:33:35;;;;;;;7.53;1.90;;;17.20;72.90;;;;;;5081120;28;20036;-94
2022/05/27 12:36:05;;;;;;;;;;;17.30;72.80;;;;;;5080903;28;20114;-94
2022/05/27 12:38:37;;;;;;;7.85;1.77;;;17.30;71.90;;;;;;5079891;28;19908;-90
2022/05/27 12:41:06;;;;;;;10.55;1.77;;;17.20;71.80;;;;;;5076449;28;20048;-93
2022/05/27 12:43:54;;;;;;;7.57;1.67;;;17.10;71.30;;;;;;5078828;28;20037;-94
2022/05/27 12:46:46;;;;;;;6.82;2.10;;;16.80;70.90;;;;;;5138701;22;20166;-92
2022/05/27 12:49:41;;;;;;;7.05;1.85;;;16.40;71.60;;;;;;5131956;27;20481;-92
2022/05/27 12:52:27;;;;;;;16.25;2.55;;;16.20;72.60;;;;;;5109506;27;20023;-93
2022/05/27 12:54:56;;;;;;;13.43;2.00;;;16.00;73.20;;;;;;5108936;27;20047;-94
2022/05/27 13:00:56;;;;;;;10.73;2.30;;;15.90;74.30;;;;;;5126572;27;20582;-92
2022/05/27 13:03:41;;;;;;;17.15;2.47;;;15.90;75.00;;;;;;5110026;27;20104;-94
2022/05/27 13:06:33;;;;;;;12.85;2.15;;;16.00;75.10;;;;;;5107938;27;20035;-93
2022/05/27 13:09:03;;;;;;;11.10;1.88;;;16.00;74.60;;;;;;5108863;27;20027;-94
2022/05/27 13:11:33;;;;;;;12.57;2.40;;;16.10;75.00;;;;;;5105080;28;20028;-95
2022/05/27 13:14:05;;;;;;;13.30;1.73;;;16.30;75.10;;;;;;5103526;28;20067;-96
2022/05/27 13:17:05;;;;;;;9.70;1.88;;;16.60;74.90;;;;;;5106363;28;20117;-94
2022/05/27 13:19:44;;;;;;;10.13;1.98;;;16.80;74.20;;;;;;5104261;28;20498;-95
2022/05/27 13:22:36;;;;;;;5.90;1.60;;;16.70;73.60;;;;;;5119873;28;20031;-93
2022/05/27 13:25:49;;;;;;;6.97;1.73;;;16.60;73.60;;;;;;5101676;28;20126;-95
2022/05/27 13:28:47;;;;;;;6.35;1.67;;;16.40;73.30;;;;;;5021223;28;20034;-95
2022/05/27 13:31:20;;;;;;;6.93;2.22;;;16.20;72.90;;;;;;4994450;28;20033;-96
2022/05/27 13:33:56;;;;;;;9.05;1.75;;;16.20;73.00;;;;;;5026867;28;20449;-96
2022/05/27 13:36:32;;;;;;;11.88;2.05;;;16.30;73.40;;;;;;5025543;28;20028;-94
2022/05/27 13:39:05;;;;;;;8.95;1.70;;;16.30;73.30;;;;;;5028812;28;20113;-96
2022/05/27 13:41:42;;;;;;;7.25;1.60;;;16.20;73.10;;;;;;5024866;28;20030;-96
2022/05/27 13:44:16;;;;;;;9.00;1.83;;;16.20;73.20;;;;;;5018642;28;20030;-96
2022/05/27 13:46:50;;;;;;;7.63;1.90;;;16.20;73.30;;;;;;4996355;28;20034;-95
2022/05/27 13:49:38;;;;;;;12.10;1.75;;;16.30;73.40;;;;;;4995494;28;20010;-95
2022/05/27 13:52:25;;;;;;;9.18;1.48;;;16.20;72.40;;;;;;4996840;28;20132;-96